Latest Weather Observations for Adelaide (Kent Town)

IDS60901

Issued at 6:41 am CST Friday 18 August 2017 (issued every 10 minutes, with the page automatically refreshed every 10 minutes)

About weather observations | Map of Adelaide area stations | Latest observations for Adelaide area | Other Formats
Station Details ID: 023090 Name: KENT TOWN Lat: -34.92 Lon: 138.62 Height: 48.0 m
Data from the previous 72 hours. | See also: Recent months at Adelaide (Kent Town)
Date/Time
CST
Temp
°C
App
Temp
°C
Dew
Point
°C
Rel
Hum
%
Delta-T
°C
Wind Press
QNH
hPa
Press
MSL
hPa
Rain since
9am
mm
Dir  Spd
km/h
Gust
km/h
Spd
kts
Gust
kts
18/06:30am 8.7 6.0 7.2 90 0.7 W 11 22 6 12 1019.7 1019.8 6.8
18/06:00am 9.0 6.6 6.9 87 1.0 WNW 9 17 5 9 1019.3 1019.4 5.2
18/05:30am 8.8 5.5 6.6 86 1.0 W 13 19 7 10 1018.9 1019.0 5.2
18/05:00am 9.0 4.8 5.9 81 1.4 W 17 28 9 15 1018.7 1018.8 5.2
18/04:30am 8.5 6.1 7.2 91 0.6 W 9 19 5 10 1018.0 1018.1 5.2
18/04:00am 8.3 3.3 6.3 87 0.9 WSW 22 41 12 22 1017.9 1018.0 4.8
18/03:30am 9.2 4.7 4.2 71 2.2 WSW 17 30 9 16 1017.4 1017.5 3.6
18/03:00am 9.4 5.8 6.8 84 1.2 W 15 33 8 18 1017.4 1017.5 3.4
18/02:30am 8.7 5.0 6.5 86 1.0 W 15 28 8 15 1017.3 1017.4 3.4
18/02:00am 8.3 4.6 6.1 86 1.0 W 15 28 8 15 1016.8 1016.9 3.2
18/01:30am 8.7 5.2 7.2 90 0.7 WSW 15 26 8 14 1016.9 1017.0 2.6
18/01:11am 8.1 1.8 5.7 85 1.1 WSW 28 65 15 35 1016.8 1016.9 2.6
18/01:00am 10.2 5.2 4.4 67 2.6 W 20 33 11 18 1016.1 1016.2 1.2
18/12:30am 10.2 6.0 5.6 73 2.1 W 17 32 9 17 1015.8 1015.8 1.2
18/12:00am 10.1 4.3 6.2 77 1.8 W 26 41 14 22 1015.7 1015.7 1.0
 
Date/Time
CST
Temp
°C
App
Temp
°C
Dew
Point
°C
Rel
Hum
%
Delta-T
°C
Wind Press
QNH
hPa
Press
MSL
hPa
Rain since
9am
mm
Dir  Spd
km/h
Gust
km/h
Spd
kts
Gust
kts
17/11:30pm 10.5 6.6 5.5 71 2.3 W 15 28 8 15 1015.2 1015.2 1.0
17/11:00pm 10.5 5.7 4.5 66 2.7 WSW 19 32 10 17 1015.1 1015.1 1.0
17/10:30pm 11.1 5.8 5.0 66 2.8 W 22 39 12 21 1014.7 1014.7 1.0
17/10:00pm 11.3 6.2 4.2 61 3.2 W 20 39 11 21 1014.4 1014.4 1.0
17/09:30pm 11.3 6.9 4.7 64 3.0 W 17 30 9 16 1014.2 1014.2 1.0
17/09:00pm 11.2 5.4 4.6 64 3.0 W 24 46 13 25 1014.0 1014.0 1.0
17/08:30pm 11.4 6.4 3.5 58 3.5 W 19 39 10 21 1013.7 1013.7 1.0
17/08:00pm 11.7 6.0 4.9 63 3.1 W 24 41 13 22 1013.4 1013.4 1.0
17/07:30pm 11.8 6.8 4.8 62 3.2 W 20 37 11 20 1012.8 1012.8 1.0
17/07:00pm 11.9 6.7 5.4 64 3.0 W 22 41 12 22 1012.3 1012.3 1.0
17/06:30pm 12.1 6.9 5.4 63 3.1 W 22 43 12 23 1011.9 1011.9 1.0
17/06:00pm 12.5 6.9 5.2 61 3.4 W 24 41 13 22 1011.4 1011.4 1.0
17/05:30pm 12.3 7.0 5.2 62 3.3 W 22 35 12 19 1011.0 1011.0 1.0
17/05:00pm 12.8 6.7 4.8 58 3.7 WNW 26 43 14 23 1010.5 1010.5 1.0
17/04:30pm 13.2 8.5 6.1 62 3.4 W 20 33 11 18 1010.3 1010.3 1.0
17/04:00pm 12.9 6.6 5.9 62 3.3 WSW 28 48 15 26 1010.2 1010.2 1.0
17/03:30pm 12.0 5.7 7.5 74 2.2 WSW 30 61 16 33 1010.0 1010.0 1.0
17/03:26pm 12.8 6.6 6.3 64 3.1 W 28 61 15 33 1010.1 1010.1 1.0
17/03:00pm 13.7 8.1 7.2 65 3.2 W 26 44 14 24 1009.5 1009.5 1.0
17/02:30pm 11.5 6.9 9.7 89 0.9 WSW 24 44 13 24 1009.6 1009.6 1.0
17/02:18pm 13.1 7.4 8.5 73 2.3 W 28 65 15 35 1009.7 1009.7 0.0
17/02:05pm 15.9 9.7 6.0 52 4.8 WNW 28 48 15 26 1009.1 1009.1 0.0
17/02:00pm 16.1 10.7 6.3 52 4.8 WNW 24 43 13 23 1009.0 1009.0 0.0
17/01:30pm 15.5 9.2 5.5 51 4.8 WNW 28 54 15 29 1008.8 1008.8 0.0
17/01:14pm 15.3 9.2 6.7 56 4.2 WNW 28 48 15 26 1008.9 1008.9 0.0
17/01:00pm 15.3 9.8 7.5 59 3.9 WNW 26 43 14 23 1009.0 1009.0 0.0
17/12:31pm 14.8 8.8 7.1 60 3.8 WNW 28 46 15 25 1009.3 1009.3 0.0
17/12:30pm 14.7 9.1 7.2 61 3.7 WNW 26 46 14 25 1009.2 1009.2 0.0
17/12:01pm 14.8 8.9 7.3 61 3.7 WNW 28 48 15 26 1009.3 1009.3 0.0
17/12:00pm 14.7 9.2 7.4 61 3.6 WNW 26 48 14 26 1009.3 1009.3 0.0
17/11:59am 14.7 8.8 7.4 61 3.6 WNW 28 48 15 26 1009.4 1009.4 0.0
17/11:30am 14.8 10.9 8.5 66 3.2 NW 19 32 10 17 1009.4 1009.4 0.0
17/11:00am 14.6 10.3 8.0 64 3.3 NW 20 33 11 18 1009.5 1009.5 0.0
17/10:30am 14.1 10.2 8.6 69 2.8 NW 19 37 10 20 1009.4 1009.4 0.0
17/10:00am 13.7 9.8 8.8 72 2.5 NNW 19 33 10 18 1009.3 1009.3 0.0
17/09:30am 13.2 9.7 8.8 74 2.2 NW 17 32 9 17 1009.4 1009.4 0.0
17/09:00am 12.6 9.0 8.2 74 2.2 NW 17 26 9 14 1009.5 1009.5 2.8
17/08:30am 12.3 9.4 8.3 76 2.0 NW 13 22 7 12 1009.4 1009.4 2.8
17/08:00am 12.1 9.6 8.0 76 2.0 NW 11 20 6 11 1009.0 1009.0 2.8
17/07:30am 11.8 9.3 8.1 78 1.8 NW 11 19 6 10 1008.7 1008.7 2.8
17/07:00am 11.8 8.6 8.6 81 1.6 NW 15 28 8 15 1008.5 1008.5 2.8
17/06:30am 12.0 8.5 8.8 81 1.6 NW 17 28 9 15 1008.0 1008.0 2.8
17/06:00am 12.0 8.5 8.6 80 1.7 WNW 17 24 9 13 1007.8 1007.8 2.8
17/05:30am 12.0 8.2 9.0 82 1.5 WNW 19 32 10 17 1007.5 1007.5 2.8
17/05:00am 11.9 8.8 8.9 82 1.5 NW 15 26 8 14 1007.1 1007.1 2.8
17/04:30am 12.1 8.0 8.7 80 1.7 NW 20 41 11 22 1007.1 1007.1 2.8
17/04:00am 11.5 8.6 9.5 87 1.0 NNW 15 24 8 13 1007.1 1007.1 2.8
17/03:30am 11.4 8.0 9.2 86 1.1 NW 17 32 9 17 1007.1 1007.1 2.8
17/03:00am 11.2 7.9 9.6 90 0.8 NW 17 28 9 15 1007.2 1007.2 2.8
17/02:30am 11.3 8.9 9.9 91 0.7 NW 13 26 7 14 1007.4 1007.4 2.2
17/02:00am 12.2 8.9 9.4 83 1.4 NW 17 26 9 14 1007.4 1007.4 1.4
17/01:30am 12.5 9.5 9.1 80 1.7 NNW 15 26 8 14 1007.6 1007.6 1.4
17/01:00am 12.0 9.8 9.4 84 1.3 NNW 11 20 6 11 1007.9 1007.9 1.4
17/12:30am 11.8 9.7 9.8 87 1.0 NNW 11 20 6 11 1008.2 1008.2 1.4
17/12:00am 12.3 8.6 9.6 83 1.4 NW 19 41 10 22 1008.6 1008.6 1.2
 
Date/Time
CST
Temp
°C
App
Temp
°C
Dew
Point
°C
Rel
Hum
%
Delta-T
°C
Wind Press
QNH
hPa
Press
MSL
hPa
Rain since
9am
mm
Dir  Spd
km/h
Gust
km/h
Spd
kts
Gust
kts
16/11:30pm 12.7 9.6 8.9 78 1.9 NW 15 35 8 19 1008.8 1008.8 1.2
16/11:00pm 12.7 9.6 8.9 78 1.9 NW 15 32 8 17 1008.9 1008.9 1.2
16/10:30pm 12.8 10.1 9.0 78 1.9 NW 13 24 7 13 1009.1 1009.1 1.2
16/10:00pm 12.7 10.2 9.6 81 1.6 NW 13 30 7 16 1009.2 1009.2 1.0
16/09:30pm 13.0 11.2 10.7 86 1.2 NW 11 20 6 11 1009.1 1009.1 0.4
16/09:00pm 13.3 11.0 10.6 84 1.4 WNW 13 20 7 11 1009.2 1009.2 0.2
16/08:30pm 13.1 10.3 10.0 81 1.6 W 15 24 8 13 1008.7 1008.7 0.2
16/08:00pm 13.0 9.7 9.7 80 1.7 W 17 32 9 17 1008.6 1008.6 0.2
16/07:30pm 13.2 10.8 9.9 80 1.7 WNW 13 24 7 13 1008.5 1008.5 0.2
16/07:00pm 12.9 10.6 10.4 85 1.3 WNW 13 20 7 11 1008.3 1008.3 0.2
16/06:30pm 13.1 8.6 10.2 82 1.5 WNW 24 54 13 29 1008.2 1008.2 0.2
16/06:00pm 14.8 11.4 7.8 63 3.5 NW 15 32 8 17 1007.5 1007.5 0.0
16/05:30pm 15.0 11.6 7.8 62 3.6 NW 15 24 8 13 1007.7 1007.7 0.0
16/05:00pm 15.4 12.1 8.1 61 3.7 NW 15 26 8 14 1007.5 1007.5 0.0
16/04:30pm 16.1 11.9 7.5 56 4.3 NNW 19 32 10 17 1007.5 1007.5 0.0
16/04:00pm 16.0 11.7 6.9 54 4.5 NW 19 35 10 19 1007.4 1007.4 0.0
16/03:30pm 15.5 11.2 7.0 57 4.2 NW 19 33 10 18 1007.5 1007.5 0.0
16/03:00pm 15.5 12.0 7.2 57 4.1 NW 15 28 8 15 1007.7 1007.7 0.0
16/02:30pm 15.5 11.7 7.5 59 4.0 NW 17 26 9 14 1007.7 1007.7 0.0
16/02:00pm 15.5 11.7 7.5 59 4.0 NW 17 33 9 18 1007.8 1007.8 0.0
16/01:30pm 15.4 11.2 8.1 61 3.7 NW 20 32 11 17 1007.9 1007.9 0.0
16/01:00pm 16.3 11.9 7.3 55 4.5 WNW 20 41 11 22 1008.1 1008.1 0.0
16/12:30pm 16.0 11.7 7.9 58 4.1 WNW 20 30 11 16 1008.2 1008.2 0.0
16/12:00pm 15.4 10.6 7.4 59 4.0 WNW 22 37 12 20 1008.5 1008.5 0.0
16/11:30am 15.0 10.7 8.0 63 3.5 WNW 20 35 11 19 1008.5 1008.5 0.0
16/11:00am 15.2 12.1 9.0 66 3.2 WNW 15 26 8 14 1008.4 1008.4 0.0
16/10:30am 14.7 11.4 9.5 71 2.7 WNW 17 24 9 13 1008.3 1008.3 0.0
16/10:00am 14.4 10.6 8.9 69 2.8 WNW 19 30 10 16 1008.0 1008.0 0.0
16/09:30am 13.9 10.3 8.5 70 2.7 NW 17 28 9 15 1007.9 1007.9 0.0
16/09:00am 13.0 10.0 9.3 78 1.9 NW 15 24 8 13 1007.8 1007.8 15.8
16/08:30am 12.3 9.4 9.8 85 1.3 WNW 15 24 8 13 1007.6 1007.6 15.8
16/08:00am 12.3 9.6 9.1 81 1.6 NW 13 20 7 11 1007.3 1007.3 15.6
16/07:30am 12.2 9.5 8.8 80 1.7 NW 13 20 7 11 1006.9 1006.9 15.6
16/07:00am 12.0 9.6 8.8 81 1.6 NW 11 20 6 11 1006.7 1006.7 15.6
16/06:30am 12.0 9.2 8.6 80 1.7 WNW 13 22 7 12 1006.3 1006.3 15.6
16/06:00am 11.9 9.9 8.5 80 1.7 WNW 9 17 5 9 1006.2 1006.2 15.6
16/05:30am 11.7 9.6 8.3 79 1.7 WNW 9 17 5 9 1005.9 1005.9 15.6
16/05:00am 12.1 8.8 8.0 76 2.0 W 15 30 8 16 1005.6 1005.6 15.6
16/04:30am 11.9 9.0 8.0 77 1.9 WNW 13 24 7 13 1004.7 1004.7 15.6
16/04:00am 11.9 9.0 8.3 78 1.8 WNW 13 24 7 13 1004.4 1004.4 15.6
16/03:30am 12.2 8.9 8.2 76 2.0 WNW 15 32 8 17 1004.2 1004.2 15.6
16/03:00am 12.3 8.7 8.5 77 1.9 WNW 17 30 9 16 1004.0 1004.0 15.6
16/02:30am 12.6 8.6 8.2 74 2.2 WNW 19 33 10 18 1003.7 1003.7 15.6
16/02:00am 12.7 8.4 7.8 72 2.4 WNW 20 41 11 22 1003.8 1003.8 15.6
16/01:30am 12.8 8.5 7.7 71 2.5 WNW 20 43 11 23 1003.8 1003.8 15.6
16/01:00am 12.8 8.6 7.5 70 2.6 WNW 19 35 10 19 1003.8 1003.8 15.6
16/12:30am 12.9 10.1 8.5 74 2.2 WNW 13 24 7 13 1003.9 1003.9 15.6
16/12:00am 12.9 10.3 9.2 78 1.9 NW 13 24 7 13 1003.7 1003.7 15.6
 
Date/Time
CST
Temp
°C
App
Temp
°C
Dew
Point
°C
Rel
Hum
%
Delta-T
°C
Wind Press
QNH
hPa
Press
MSL
hPa
Rain since
9am
mm
Dir  Spd
km/h
Gust
km/h
Spd
kts
Gust
kts
15/11:30pm 13.2 10.9 10.5 84 1.4 NW 13 24 7 13 1003.4 1003.4 15.6
15/11:00pm 13.4 10.7 10.5 82 1.5 NW 15 28 8 15 1003.6 1003.6 15.6
15/10:30pm 13.6 11.0 10.6 82 1.6 NW 15 26 8 14 1003.6 1003.6 15.6
15/10:00pm 13.8 10.4 10.6 81 1.7 WNW 19 35 10 19 1003.6 1003.6 15.6
15/09:30pm 14.1 10.9 11.1 82 1.6 NW 19 30 10 16 1003.5 1003.5 15.6
15/09:00pm 14.3 11.4 11.1 81 1.7 WNW 17 30 9 16 1003.6 1003.6 15.6
15/08:30pm 14.4 11.3 11.6 83 1.5 NW 19 33 10 18 1003.3 1003.3 15.6
15/08:00pm 14.4 11.8 12.0 85 1.3 NW 17 28 9 15 1003.2 1003.2 15.6
15/07:30pm 14.5 12.8 12.3 87 1.2 NNW 13 24 7 13 1003.2 1003.2 15.6
15/07:00pm 14.7 12.5 13.3 91 0.8 NNW 17 28 9 15 1003.1 1003.1 15.6
15/06:30pm 14.7 13.4 13.6 93 0.6 NNW 13 22 7 12 1003.1 1003.1 15.6
15/06:00pm 14.1 13.0 13.2 94 0.5 NNW 11 19 6 10 1003.1 1003.1 15.6
15/05:30pm 13.7 12.3 12.2 91 0.8 NNW 11 20 6 11 1003.1 1003.1 15.6
15/05:00pm 14.0 12.3 12.4 90 0.9 NNW 13 24 7 13 1002.9 1002.9 15.6
15/04:30pm 14.4 13.0 13.3 93 0.6 NW 13 26 7 14 1003.3 1003.3 15.4
15/04:00pm 14.8 12.9 14.1 96 0.4 W 17 28 9 15 1003.5 1003.5 14.8
15/03:30pm 15.2 13.7 14.1 93 0.6 NNW 15 28 8 15 1002.9 1002.9 9.6
15/03:00pm 15.2 13.0 14.3 94 0.5 N 19 32 10 17 1003.2 1003.2 9.4
15/02:30pm 15.2 13.7 14.3 94 0.5 N 15 28 8 15 1003.6 1003.6 9.0
15/02:00pm 15.3 13.5 14.4 94 0.5 N 17 30 9 16 1004.0 1004.0 8.4
15/01:30pm 15.4 13.6 14.5 94 0.5 N 17 30 9 16 1004.0 1004.0 7.8
15/01:00pm 15.4 14.0 14.5 94 0.5 N 15 28 8 15 1004.9 1004.9 7.0
15/12:30pm 15.4 13.9 14.3 93 0.6 N 15 22 8 12 1005.2 1005.2 5.8
15/12:00pm 15.4 14.0 14.5 94 0.5 N 15 30 8 16 1006.1 1006.1 5.2
15/11:30am 15.6 13.9 14.6 94 0.6 N 17 24 9 13 1006.1 1006.1 4.2
15/11:00am 15.6 14.6 14.6 94 0.6 N 13 24 7 13 1006.8 1006.8 3.8
15/10:30am 15.5 14.5 14.6 94 0.5 N 13 20 7 11 1007.4 1007.4 3.0
15/10:00am 15.5 14.9 14.5 94 0.6 N 11 20 6 11 1008.0 1008.0 1.8
15/09:30am 15.5 14.4 14.3 92 0.7 N 13 24 7 13 1007.8 1007.8 0.8
15/09:00am 15.4 14.3 14.3 93 0.6 N 13 19 7 10 1008.2 1008.2 8.4
15/08:30am 15.5 14.0 14.1 91 0.8 N 15 26 8 14 1008.6 1008.6 6.6
15/08:00am 15.2 14.5 14.3 94 0.5 NE 11 20 6 11 1007.1 1007.1 6.4
15/07:30am 15.2 14.1 14.3 94 0.5 NNE 13 22 7 12 1008.5 1008.5 6.4
15/07:00am 15.3 13.9 14.4 94 0.5 N 15 24 8 13 1009.4 1009.4 5.8

Latest Capital City Observations: Canberra | Sydney | Melbourne | Brisbane | Adelaide | Perth | Hobart | Darwin

Other Formats:

Comma delimited format used in spreadsheet applications
http://www.bom.gov.au/fwo/IDS60901/IDS60901.94675.axf

JavaScript Object Notation format (JSON) in row-major order
http://www.bom.gov.au/fwo/IDS60901/IDS60901.94675.json